sensor_id;sensor_type;location;lat;lon;timestamp;P1;durP1;ratioP1;P2;durP2;ratioP2
76685;SDS011;67489;44.536;0.146;2023-04-01T00:01:38;30.40;;;4.67;;
76685;SDS011;67489;44.536;0.146;2023-04-01T00:22:06;26.63;;;3.13;;
76685;SDS011;67489;44.536;0.146;2023-04-01T00:42:34;25.77;;;3.40;;
76685;SDS011;67489;44.536;0.146;2023-04-01T01:03:03;32.13;;;4.73;;
76685;SDS011;67489;44.536;0.146;2023-04-01T01:23:42;20.50;;;3.27;;
76685;SDS011;67489;44.536;0.146;2023-04-01T01:43:59;25.53;;;3.70;;
76685;SDS011;67489;44.536;0.146;2023-04-01T02:04:27;29.73;;;3.03;;
76685;SDS011;67489;44.536;0.146;2023-04-01T02:24:57;27.93;;;3.60;;
76685;SDS011;67489;44.536;0.146;2023-04-01T02:45:24;35.53;;;4.10;;
76685;SDS011;67489;44.536;0.146;2023-04-01T03:05:52;31.83;;;4.13;;
76685;SDS011;67489;44.536;0.146;2023-04-01T03:26:19;31.63;;;4.20;;
76685;SDS011;67489;44.536;0.146;2023-04-01T03:46:47;24.20;;;3.10;;
76685;SDS011;67489;44.536;0.146;2023-04-01T04:07:17;26.33;;;3.23;;
76685;SDS011;67489;44.536;0.146;2023-04-01T04:27:45;32.90;;;4.80;;
76685;SDS011;67489;44.536;0.146;2023-04-01T04:48:13;25.37;;;3.27;;
76685;SDS011;67489;44.536;0.146;2023-04-01T05:08:42;22.73;;;3.23;;
76685;SDS011;67489;44.536;0.146;2023-04-01T05:29:08;21.97;;;2.47;;
76685;SDS011;67489;44.536;0.146;2023-04-01T05:49:36;18.30;;;3.07;;
76685;SDS011;67489;44.536;0.146;2023-04-01T06:10:06;20.63;;;2.80;;
76685;SDS011;67489;44.536;0.146;2023-04-01T06:30:34;30.17;;;3.53;;
76685;SDS011;67489;44.536;0.146;2023-04-01T06:51:00;28.73;;;3.10;;
76685;SDS011;67489;44.536;0.146;2023-04-01T07:11:29;29.97;;;3.53;;
76685;SDS011;67489;44.536;0.146;2023-04-01T07:32:01;22.17;;;3.57;;
76685;SDS011;67489;44.536;0.146;2023-04-01T07:52:25;22.90;;;2.57;;
76685;SDS011;67489;44.536;0.146;2023-04-01T08:12:56;23.37;;;3.43;;
76685;SDS011;67489;44.536;0.146;2023-04-01T08:33:22;26.50;;;4.73;;
76685;SDS011;67489;44.536;0.146;2023-04-01T08:53:53;13.97;;;3.07;;
76685;SDS011;67489;44.536;0.146;2023-04-01T09:14:25;15.70;;;3.17;;
76685;SDS011;67489;44.536;0.146;2023-04-01T09:34:52;15.70;;;2.77;;
76685;SDS011;67489;44.536;0.146;2023-04-01T09:55:19;21.93;;;2.50;;
76685;SDS011;67489;44.536;0.146;2023-04-01T10:15:44;14.07;;;2.97;;
76685;SDS011;67489;44.536;0.146;2023-04-01T10:36:17;13.93;;;2.10;;
76685;SDS011;67489;44.536;0.146;2023-04-01T10:56:39;9.23;;;2.03;;
76685;SDS011;67489;44.536;0.146;2023-04-01T11:17:15;5.73;;;1.40;;
76685;SDS011;67489;44.536;0.146;2023-04-01T11:37:38;9.17;;;1.63;;
76685;SDS011;67489;44.536;0.146;2023-04-01T11:58:10;4.87;;;1.53;;
76685;SDS011;67489;44.536;0.146;2023-04-01T12:18:36;7.07;;;1.67;;
76685;SDS011;67489;44.536;0.146;2023-04-01T12:39:07;10.57;;;1.37;;
76685;SDS011;67489;44.536;0.146;2023-04-01T12:59:34;6.77;;;1.50;;
76685;SDS011;67489;44.536;0.146;2023-04-01T13:19:58;4.37;;;1.13;;
76685;SDS011;67489;44.536;0.146;2023-04-01T13:40:26;3.00;;;1.00;;
76685;SDS011;67489;44.536;0.146;2023-04-01T14:00:54;11.47;;;1.67;;
76685;SDS011;67489;44.536;0.146;2023-04-01T14:21:21;3.13;;;0.40;;
76685;SDS011;67489;44.536;0.146;2023-04-01T14:41:46;5.53;;;1.50;;
76685;SDS011;67489;44.536;0.146;2023-04-01T15:02:14;1.43;;;0.50;;
76685;SDS011;67489;44.536;0.146;2023-04-01T15:22:52;3.73;;;0.50;;
76685;SDS011;67489;44.536;0.146;2023-04-01T15:43:14;1.80;;;0.40;;
76685;SDS011;67489;44.536;0.146;2023-04-01T16:03:38;10.90;;;1.70;;
76685;SDS011;67489;44.536;0.146;2023-04-01T16:24:00;3.03;;;0.97;;
76685;SDS011;67489;44.536;0.146;2023-04-01T16:44:30;3.43;;;0.70;;
76685;SDS011;67489;44.536;0.146;2023-04-01T17:05:01;3.90;;;0.70;;
76685;SDS011;67489;44.536;0.146;2023-04-01T17:25:27;12.80;;;1.20;;
76685;SDS011;67489;44.536;0.146;2023-04-01T17:45:53;3.23;;;1.00;;
76685;SDS011;67489;44.536;0.146;2023-04-01T18:06:18;10.07;;;1.03;;
76685;SDS011;67489;44.536;0.146;2023-04-01T18:26:47;3.17;;;0.93;;
76685;SDS011;67489;44.536;0.146;2023-04-01T18:47:17;5.33;;;1.00;;
76685;SDS011;67489;44.536;0.146;2023-04-01T19:07:43;6.70;;;1.50;;
76685;SDS011;67489;44.536;0.146;2023-04-01T19:28:17;8.00;;;1.10;;
76685;SDS011;67489;44.536;0.146;2023-04-01T19:48:44;7.80;;;1.23;;
76685;SDS011;67489;44.536;0.146;2023-04-01T20:09:08;10.70;;;1.40;;
76685;SDS011;67489;44.536;0.146;2023-04-01T20:29:43;9.73;;;1.20;;
76685;SDS011;67489;44.536;0.146;2023-04-01T20:50:02;10.20;;;1.90;;
76685;SDS011;67489;44.536;0.146;2023-04-01T21:10:33;8.30;;;1.20;;
76685;SDS011;67489;44.536;0.146;2023-04-01T21:31:02;8.63;;;1.17;;
76685;SDS011;67489;44.536;0.146;2023-04-01T22:11:53;7.10;;;1.50;;
76685;SDS011;67489;44.536;0.146;2023-04-01T22:32:20;9.30;;;1.63;;
76685;SDS011;67489;44.536;0.146;2023-04-01T22:52:49;4.80;;;1.27;;
76685;SDS011;67489;44.536;0.146;2023-04-01T23:13:19;15.13;;;1.20;;
76685;SDS011;67489;44.536;0.146;2023-04-01T23:33:45;6.50;;;1.83;;
76685;SDS011;67489;44.536;0.146;2023-04-01T23:54:17;4.33;;;0.83;;
